sensor_id;sensor_type;location;lat;lon;timestamp;temperature;humidity
17851;DHT22;9051;51.548;14.348;2022-08-01T00:00:24;21.30;99.90
17851;DHT22;9051;51.548;14.348;2022-08-01T00:02:56;21.30;99.90
17851;DHT22;9051;51.548;14.348;2022-08-01T00:05:29;21.30;99.90
17851;DHT22;9051;51.548;14.348;2022-08-01T00:08:01;21.30;99.90
17851;DHT22;9051;51.548;14.348;2022-08-01T00:10:33;21.30;99.90
17851;DHT22;9051;51.548;14.348;2022-08-01T00:13:05;21.30;99.90
17851;DHT22;9051;51.548;14.348;2022-08-01T00:15:36;21.40;99.90
17851;DHT22;9051;51.548;14.348;2022-08-01T00:18:08;21.40;99.90
17851;DHT22;9051;51.548;14.348;2022-08-01T00:20:41;21.30;99.90
17851;DHT22;9051;51.548;14.348;2022-08-01T00:23:13;21.40;99.90
17851;DHT22;9051;51.548;14.348;2022-08-01T00:25:45;21.40;99.90
17851;DHT22;9051;51.548;14.348;2022-08-01T00:28:17;21.40;99.90
17851;DHT22;9051;51.548;14.348;2022-08-01T00:30:49;21.40;99.90
17851;DHT22;9051;51.548;14.348;2022-08-01T00:33:21;21.30;99.90
17851;DHT22;9051;51.548;14.348;2022-08-01T00:35:54;21.30;99.90
17851;DHT22;9051;51.548;14.348;2022-08-01T00:38:26;21.40;99.90
17851;DHT22;9051;51.548;14.348;2022-08-01T00:40:58;21.30;99.90
17851;DHT22;9051;51.548;14.348;2022-08-01T00:43:30;21.30;99.90
17851;DHT22;9051;51.548;14.348;2022-08-01T00:46:02;21.20;99.90
17851;DHT22;9051;51.548;14.348;2022-08-01T00:48:33;21.20;99.90
17851;DHT22;9051;51.548;14.348;2022-08-01T00:51:07;21.20;99.90
17851;DHT22;9051;51.548;14.348;2022-08-01T00:53:40;21.20;99.90
17851;DHT22;9051;51.548;14.348;2022-08-01T00:56:12;21.10;99.90
17851;DHT22;9051;51.548;14.348;2022-08-01T00:58:44;21.10;99.90
17851;DHT22;9051;51.548;14.348;2022-08-01T01:01:16;21.10;99.90
17851;DHT22;9051;51.548;14.348;2022-08-01T01:03:52;21.10;99.90
17851;DHT22;9051;51.548;14.348;2022-08-01T01:06:30;21.10;99.90
17851;DHT22;9051;51.548;14.348;2022-08-01T01:09:30;21.00;99.90
17851;DHT22;9051;51.548;14.348;2022-08-01T01:12:12;20.90;99.90
17851;DHT22;9051;51.548;14.348;2022-08-01T01:14:50;20.90;99.90
17851;DHT22;9051;51.548;14.348;2022-08-01T01:17:39;20.80;99.90
17851;DHT22;9051;51.548;14.348;2022-08-01T01:20:13;20.80;99.90
17851;DHT22;9051;51.548;14.348;2022-08-01T01:22:53;20.80;99.90
17851;DHT22;9051;51.548;14.348;2022-08-01T01:25:40;20.70;99.90
17851;DHT22;9051;51.548;14.348;2022-08-01T01:28:27;20.70;99.90
17851;DHT22;9051;51.548;14.348;2022-08-01T01:31:02;20.70;99.90
17851;DHT22;9051;51.548;14.348;2022-08-01T01:33:37;20.80;99.90
17851;DHT22;9051;51.548;14.348;2022-08-01T01:36:11;20.80;99.90
17851;DHT22;9051;51.548;14.348;2022-08-01T01:38:45;20.70;99.90
17851;DHT22;9051;51.548;14.348;2022-08-01T01:41:18;20.70;99.90
17851;DHT22;9051;51.548;14.348;2022-08-01T01:43:52;20.70;99.90
17851;DHT22;9051;51.548;14.348;2022-08-01T01:46:26;20.70;99.90
17851;DHT22;9051;51.548;14.348;2022-08-01T01:49:00;20.60;99.90
17851;DHT22;9051;51.548;14.348;2022-08-01T01:51:33;20.50;99.90
17851;DHT22;9051;51.548;14.348;2022-08-01T01:54:05;20.50;99.90
17851;DHT22;9051;51.548;14.348;2022-08-01T01:56:40;20.50;99.90
17851;DHT22;9051;51.548;14.348;2022-08-01T01:59:21;20.40;99.90
17851;DHT22;9051;51.548;14.348;2022-08-01T02:01:59;20.40;99.90
17851;DHT22;9051;51.548;14.348;2022-08-01T02:04:35;20.30;99.90
17851;DHT22;9051;51.548;14.348;2022-08-01T02:07:11;20.30;99.90
17851;DHT22;9051;51.548;14.348;2022-08-01T02:09:46;20.20;99.90
17851;DHT22;9051;51.548;14.348;2022-08-01T02:12:19;20.10;99.90
17851;DHT22;9051;51.548;14.348;2022-08-01T02:14:53;20.10;99.90
17851;DHT22;9051;51.548;14.348;2022-08-01T02:17:27;20.00;99.90
17851;DHT22;9051;51.548;14.348;2022-08-01T02:19:59;20.00;99.90
17851;DHT22;9051;51.548;14.348;2022-08-01T02:22:36;20.00;99.90
17851;DHT22;9051;51.548;14.348;2022-08-01T02:25:13;19.90;99.90
17851;DHT22;9051;51.548;14.348;2022-08-01T02:27:54;19.90;99.90
17851;DHT22;9051;51.548;14.348;2022-08-01T02:30:29;19.80;99.90
17851;DHT22;9051;51.548;14.348;2022-08-01T02:33:11;19.80;99.90
17851;DHT22;9051;51.548;14.348;2022-08-01T02:35:48;19.70;99.90
17851;DHT22;9051;51.548;14.348;2022-08-01T02:38:24;19.70;99.90
17851;DHT22;9051;51.548;14.348;2022-08-01T02:40:58;19.60;99.90
17851;DHT22;9051;51.548;14.348;2022-08-01T02:43:32;19.60;99.90
17851;DHT22;9051;51.548;14.348;2022-08-01T02:46:08;19.50;99.90
17851;DHT22;9051;51.548;14.348;2022-08-01T02:48:44;19.50;99.90
17851;DHT22;9051;51.548;14.348;2022-08-01T02:51:17;19.40;99.90
17851;DHT22;9051;51.548;14.348;2022-08-01T02:53:53;19.40;99.90
17851;DHT22;9051;51.548;14.348;2022-08-01T02:56:27;19.40;99.90
17851;DHT22;9051;51.548;14.348;2022-08-01T02:59:07;19.50;99.90
17851;DHT22;9051;51.548;14.348;2022-08-01T03:01:39;19.50;99.90
17851;DHT22;9051;51.548;14.348;2022-08-01T03:04:14;19.50;99.90
17851;DHT22;9051;51.548;14.348;2022-08-01T03:06:48;19.60;99.90
17851;DHT22;9051;51.548;14.348;2022-08-01T03:09:21;19.70;99.90
17851;DHT22;9051;51.548;14.348;2022-08-01T03:11:55;19.60;99.90
17851;DHT22;9051;51.548;14.348;2022-08-01T03:14:29;19.60;99.90
17851;DHT22;9051;51.548;14.348;2022-08-01T03:17:04;19.60;99.90
17851;DHT22;9051;51.548;14.348;2022-08-01T03:19:38;19.70;99.90
17851;DHT22;9051;51.548;14.348;2022-08-01T03:22:12;19.60;99.90
17851;DHT22;9051;51.548;14.348;2022-08-01T03:24:49;19.60;99.90
17851;DHT22;9051;51.548;14.348;2022-08-01T03:27:23;19.60;99.90
17851;DHT22;9051;51.548;14.348;2022-08-01T03:29:57;19.50;99.90
17851;DHT22;9051;51.548;14.348;2022-08-01T03:32:30;19.50;99.90
17851;DHT22;9051;51.548;14.348;2022-08-01T03:35:04;19.60;99.90
17851;DHT22;9051;51.548;14.348;2022-08-01T03:37:40;19.50;99.90
17851;DHT22;9051;51.548;14.348;2022-08-01T03:40:17;19.60;99.90
17851;DHT22;9051;51.548;14.348;2022-08-01T03:42:56;19.60;99.90
17851;DHT22;9051;51.548;14.348;2022-08-01T03:45:33;19.60;99.90
17851;DHT22;9051;51.548;14.348;2022-08-01T03:48:09;19.60;99.90
17851;DHT22;9051;51.548;14.348;2022-08-01T03:50:45;19.60;99.90
17851;DHT22;9051;51.548;14.348;2022-08-01T03:53:20;19.70;99.90
17851;DHT22;9051;51.548;14.348;2022-08-01T03:55:54;19.80;99.90
17851;DHT22;9051;51.548;14.348;2022-08-01T03:58:28;19.80;99.90
17851;DHT22;9051;51.548;14.348;2022-08-01T04:01:00;19.80;99.90
17851;DHT22;9051;51.548;14.348;2022-08-01T04:03:33;19.80;99.90
17851;DHT22;9051;51.548;14.348;2022-08-01T04:06:07;19.80;99.90
17851;DHT22;9051;51.548;14.348;2022-08-01T04:08:41;19.90;99.90
17851;DHT22;9051;51.548;14.348;2022-08-01T04:11:13;20.00;99.90
17851;DHT22;9051;51.548;14.348;2022-08-01T04:13:44;20.10;99.90
17851;DHT22;9051;51.548;14.348;2022-08-01T04:16:16;20.10;99.90
17851;DHT22;9051;51.548;14.348;2022-08-01T04:18:48;20.10;99.90
17851;DHT22;9051;51.548;14.348;2022-08-01T04:21:23;20.10;99.90
17851;DHT22;9051;51.548;14.348;2022-08-01T04:24:00;20.10;99.90
17851;DHT22;9051;51.548;14.348;2022-08-01T04:26:34;20.10;99.90
17851;DHT22;9051;51.548;14.348;2022-08-01T04:29:08;20.10;99.90
17851;DHT22;9051;51.548;14.348;2022-08-01T04:31:42;20.10;99.90
17851;DHT22;9051;51.548;14.348;2022-08-01T04:34:17;20.10;99.90
17851;DHT22;9051;51.548;14.348;2022-08-01T04:36:54;20.20;99.90
17851;DHT22;9051;51.548;14.348;2022-08-01T04:39:28;20.20;99.90
17851;DHT22;9051;51.548;14.348;2022-08-01T04:42:04;20.30;99.90
17851;DHT22;9051;51.548;14.348;2022-08-01T04:44:37;20.30;99.90
17851;DHT22;9051;51.548;14.348;2022-08-01T04:47:09;20.30;99.90
17851;DHT22;9051;51.548;14.348;2022-08-01T04:49:41;20.40;99.90
17851;DHT22;9051;51.548;14.348;2022-08-01T04:52:17;20.40;99.90
17851;DHT22;9051;51.548;14.348;2022-08-01T04:54:49;20.40;99.90
17851;DHT22;9051;51.548;14.348;2022-08-01T04:57:21;20.40;99.90
17851;DHT22;9051;51.548;14.348;2022-08-01T04:59:53;20.40;99.90
17851;DHT22;9051;51.548;14.348;2022-08-01T05:02:27;20.50;99.90
17851;DHT22;9051;51.548;14.348;2022-08-01T05:04:59;20.50;99.90
17851;DHT22;9051;51.548;14.348;2022-08-01T05:07:33;20.50;99.90
17851;DHT22;9051;51.548;14.348;2022-08-01T05:10:07;20.50;99.90
17851;DHT22;9051;51.548;14.348;2022-08-01T05:12:39;20.50;99.90
17851;DHT22;9051;51.548;14.348;2022-08-01T05:15:11;20.60;99.90
17851;DHT22;9051;51.548;14.348;2022-08-01T05:17:42;20.60;99.90
17851;DHT22;9051;51.548;14.348;2022-08-01T05:20:14;20.70;99.90
17851;DHT22;9051;51.548;14.348;2022-08-01T05:22:48;20.80;99.90
17851;DHT22;9051;51.548;14.348;2022-08-01T05:25:20;20.90;99.90
17851;DHT22;9051;51.548;14.348;2022-08-01T05:27:52;21.10;99.90
17851;DHT22;9051;51.548;14.348;2022-08-01T05:30:24;21.20;99.90
17851;DHT22;9051;51.548;14.348;2022-08-01T05:32:55;21.20;99.90
17851;DHT22;9051;51.548;14.348;2022-08-01T05:35:27;21.30;99.90
17851;DHT22;9051;51.548;14.348;2022-08-01T05:38:01;21.40;99.90
17851;DHT22;9051;51.548;14.348;2022-08-01T05:40:33;21.40;99.90
17851;DHT22;9051;51.548;14.348;2022-08-01T05:43:05;21.50;99.90
17851;DHT22;9051;51.548;14.348;2022-08-01T05:45:37;21.50;99.90
17851;DHT22;9051;51.548;14.348;2022-08-01T05:48:08;21.50;99.90
17851;DHT22;9051;51.548;14.348;2022-08-01T05:50:40;21.50;99.90
17851;DHT22;9051;51.548;14.348;2022-08-01T05:53:14;21.50;99.90
17851;DHT22;9051;51.548;14.348;2022-08-01T05:55:45;21.50;99.90
17851;DHT22;9051;51.548;14.348;2022-08-01T05:58:17;21.60;99.90
17851;DHT22;9051;51.548;14.348;2022-08-01T06:00:49;21.50;99.90
17851;DHT22;9051;51.548;14.348;2022-08-01T06:03:21;21.60;99.90
17851;DHT22;9051;51.548;14.348;2022-08-01T06:05:53;21.60;99.90
17851;DHT22;9051;51.548;14.348;2022-08-01T06:08:27;21.60;99.90
17851;DHT22;9051;51.548;14.348;2022-08-01T06:10:59;21.60;99.90
17851;DHT22;9051;51.548;14.348;2022-08-01T06:13:30;21.60;99.90
17851;DHT22;9051;51.548;14.348;2022-08-01T06:16:03;21.50;99.90
17851;DHT22;9051;51.548;14.348;2022-08-01T06:18:35;21.40;99.90
17851;DHT22;9051;51.548;14.348;2022-08-01T06:21:06;21.40;99.90
17851;DHT22;9051;51.548;14.348;2022-08-01T06:23:40;21.40;99.90
17851;DHT22;9051;51.548;14.348;2022-08-01T06:26:12;21.50;99.90
17851;DHT22;9051;51.548;14.348;2022-08-01T06:28:44;21.60;99.90
17851;DHT22;9051;51.548;14.348;2022-08-01T06:31:16;21.70;99.90
17851;DHT22;9051;51.548;14.348;2022-08-01T06:33:48;21.80;99.90
17851;DHT22;9051;51.548;14.348;2022-08-01T06:36:20;21.80;99.90
17851;DHT22;9051;51.548;14.348;2022-08-01T06:38:53;21.80;99.90
17851;DHT22;9051;51.548;14.348;2022-08-01T06:41:25;21.80;99.90
17851;DHT22;9051;51.548;14.348;2022-08-01T06:43:57;21.80;99.90
17851;DHT22;9051;51.548;14.348;2022-08-01T06:46:32;21.90;99.90
17851;DHT22;9051;51.548;14.348;2022-08-01T06:49:05;22.00;99.90
17851;DHT22;9051;51.548;14.348;2022-08-01T06:51:36;21.90;99.90
17851;DHT22;9051;51.548;14.348;2022-08-01T06:54:10;21.90;99.90
17851;DHT22;9051;51.548;14.348;2022-08-01T06:56:42;21.90;99.90
17851;DHT22;9051;51.548;14.348;2022-08-01T06:59:14;22.00;99.90
17851;DHT22;9051;51.548;14.348;2022-08-01T07:01:45;21.90;99.90
17851;DHT22;9051;51.548;14.348;2022-08-01T07:04:17;21.80;99.90
17851;DHT22;9051;51.548;14.348;2022-08-01T07:06:49;21.60;99.90
17851;DHT22;9051;51.548;14.348;2022-08-01T07:09:23;21.50;99.90
17851;DHT22;9051;51.548;14.348;2022-08-01T07:11:55;21.70;99.90
17851;DHT22;9051;51.548;14.348;2022-08-01T07:14:27;21.70;99.90
17851;DHT22;9051;51.548;14.348;2022-08-01T07:16:59;21.90;99.90
17851;DHT22;9051;51.548;14.348;2022-08-01T07:19:31;21.90;99.90
17851;DHT22;9051;51.548;14.348;2022-08-01T07:22:04;22.00;99.90
17851;DHT22;9051;51.548;14.348;2022-08-01T07:24:37;22.10;99.90
17851;DHT22;9051;51.548;14.348;2022-08-01T07:27:09;22.10;99.90
17851;DHT22;9051;51.548;14.348;2022-08-01T07:29:41;22.20;99.90
17851;DHT22;9051;51.548;14.348;2022-08-01T07:32:13;22.10;99.90
17851;DHT22;9051;51.548;14.348;2022-08-01T07:34:45;22.20;99.90
17851;DHT22;9051;51.548;14.348;2022-08-01T07:37:17;22.30;99.90
17851;DHT22;9051;51.548;14.348;2022-08-01T07:39:50;22.30;99.90
17851;DHT22;9051;51.548;14.348;2022-08-01T07:42:22;22.30;99.90
17851;DHT22;9051;51.548;14.348;2022-08-01T07:44:54;22.30;99.90
17851;DHT22;9051;51.548;14.348;2022-08-01T07:47:26;22.50;99.90
17851;DHT22;9051;51.548;14.348;2022-08-01T07:50:02;22.60;99.90
17851;DHT22;9051;51.548;14.348;2022-08-01T07:52:34;22.60;99.90
17851;DHT22;9051;51.548;14.348;2022-08-01T07:55:11;22.50;99.90
17851;DHT22;9051;51.548;14.348;2022-08-01T07:57:43;22.50;99.90
17851;DHT22;9051;51.548;14.348;2022-08-01T08:00:15;22.70;99.90
17851;DHT22;9051;51.548;14.348;2022-08-01T08:02:47;22.80;99.90
17851;DHT22;9051;51.548;14.348;2022-08-01T08:05:19;22.90;99.90
17851;DHT22;9051;51.548;14.348;2022-08-01T08:07:51;23.00;99.90
17851;DHT22;9051;51.548;14.348;2022-08-01T08:10:24;23.00;99.90
17851;DHT22;9051;51.548;14.348;2022-08-01T08:12:56;23.00;99.90
17851;DHT22;9051;51.548;14.348;2022-08-01T08:15:29;23.00;99.90
17851;DHT22;9051;51.548;14.348;2022-08-01T08:18:02;23.00;99.90
17851;DHT22;9051;51.548;14.348;2022-08-01T08:20:34;22.90;99.90
17851;DHT22;9051;51.548;14.348;2022-08-01T08:23:06;22.80;99.90
17851;DHT22;9051;51.548;14.348;2022-08-01T08:25:59;22.80;99.90
17851;DHT22;9051;51.548;14.348;2022-08-01T08:28:31;22.90;99.90
17851;DHT22;9051;51.548;14.348;2022-08-01T08:31:03;22.90;99.90
17851;DHT22;9051;51.548;14.348;2022-08-01T08:33:35;22.90;99.90
17851;DHT22;9051;51.548;14.348;2022-08-01T08:36:07;22.80;99.90
17851;DHT22;9051;51.548;14.348;2022-08-01T08:38:39;22.80;99.90
17851;DHT22;9051;51.548;14.348;2022-08-01T08:41:12;22.70;99.90
17851;DHT22;9051;51.548;14.348;2022-08-01T08:43:44;22.80;99.90
17851;DHT22;9051;51.548;14.348;2022-08-01T08:46:16;23.00;99.90
17851;DHT22;9051;51.548;14.348;2022-08-01T08:48:48;22.90;99.90
17851;DHT22;9051;51.548;14.348;2022-08-01T08:51:21;23.10;99.90
17851;DHT22;9051;51.548;14.348;2022-08-01T08:53:56;23.10;99.90
17851;DHT22;9051;51.548;14.348;2022-08-01T08:56:30;23.00;99.90
17851;DHT22;9051;51.548;14.348;2022-08-01T08:59:04;22.90;99.90
17851;DHT22;9051;51.548;14.348;2022-08-01T09:01:36;22.90;99.90
17851;DHT22;9051;51.548;14.348;2022-08-01T09:04:09;22.90;99.90
17851;DHT22;9051;51.548;14.348;2022-08-01T09:06:41;23.00;99.90
17851;DHT22;9051;51.548;14.348;2022-08-01T09:09:13;23.10;99.90
17851;DHT22;9051;51.548;14.348;2022-08-01T09:11:47;23.30;99.90
17851;DHT22;9051;51.548;14.348;2022-08-01T09:14:19;23.40;99.90
17851;DHT22;9051;51.548;14.348;2022-08-01T09:17:02;23.50;99.90
17851;DHT22;9051;51.548;14.348;2022-08-01T09:19:38;23.40;99.90
17851;DHT22;9051;51.548;14.348;2022-08-01T09:22:12;23.20;99.90
17851;DHT22;9051;51.548;14.348;2022-08-01T09:24:58;23.20;99.90
17851;DHT22;9051;51.548;14.348;2022-08-01T09:27:32;23.30;99.90
17851;DHT22;9051;51.548;14.348;2022-08-01T09:30:09;23.50;99.90
17851;DHT22;9051;51.548;14.348;2022-08-01T09:32:55;23.60;99.90
17851;DHT22;9051;51.548;14.348;2022-08-01T09:35:29;23.70;99.90
17851;DHT22;9051;51.548;14.348;2022-08-01T09:38:16;23.80;99.90
17851;DHT22;9051;51.548;14.348;2022-08-01T09:40:50;23.70;99.90
17851;DHT22;9051;51.548;14.348;2022-08-01T09:43:25;23.70;99.90
17851;DHT22;9051;51.548;14.348;2022-08-01T09:45:58;23.50;99.90
17851;DHT22;9051;51.548;14.348;2022-08-01T09:48:31;23.50;99.90
17851;DHT22;9051;51.548;14.348;2022-08-01T09:51:03;23.60;99.90
17851;DHT22;9051;51.548;14.348;2022-08-01T09:53:43;23.50;99.90
17851;DHT22;9051;51.548;14.348;2022-08-01T09:56:16;23.50;99.90
17851;DHT22;9051;51.548;14.348;2022-08-01T09:58:54;23.60;99.90
17851;DHT22;9051;51.548;14.348;2022-08-01T10:01:27;23.60;99.90
17851;DHT22;9051;51.548;14.348;2022-08-01T10:04:07;23.60;99.90
17851;DHT22;9051;51.548;14.348;2022-08-01T10:06:40;23.60;99.90
17851;DHT22;9051;51.548;14.348;2022-08-01T10:09:14;23.60;99.90
17851;DHT22;9051;51.548;14.348;2022-08-01T10:11:46;23.50;99.90
17851;DHT22;9051;51.548;14.348;2022-08-01T10:14:19;23.50;99.90
17851;DHT22;9051;51.548;14.348;2022-08-01T10:16:52;23.30;99.90
17851;DHT22;9051;51.548;14.348;2022-08-01T10:19:27;23.30;99.90
17851;DHT22;9051;51.548;14.348;2022-08-01T10:22:00;22.90;99.90
17851;DHT22;9051;51.548;14.348;2022-08-01T10:24:36;22.70;99.90
17851;DHT22;9051;51.548;14.348;2022-08-01T10:27:10;22.40;99.90
17851;DHT22;9051;51.548;14.348;2022-08-01T10:29:50;22.30;99.90
17851;DHT22;9051;51.548;14.348;2022-08-01T10:32:23;22.10;99.90
17851;DHT22;9051;51.548;14.348;2022-08-01T10:34:55;22.00;99.90
17851;DHT22;9051;51.548;14.348;2022-08-01T10:37:27;22.10;99.90
17851;DHT22;9051;51.548;14.348;2022-08-01T10:39:59;22.40;99.90
17851;DHT22;9051;51.548;14.348;2022-08-01T10:42:33;22.70;99.90
17851;DHT22;9051;51.548;14.348;2022-08-01T10:45:09;22.90;99.90
17851;DHT22;9051;51.548;14.348;2022-08-01T10:47:45;23.30;99.90
17851;DHT22;9051;51.548;14.348;2022-08-01T10:50:27;23.60;99.90
17851;DHT22;9051;51.548;14.348;2022-08-01T10:53:13;23.70;99.90
17851;DHT22;9051;51.548;14.348;2022-08-01T10:55:51;23.70;99.90
17851;DHT22;9051;51.548;14.348;2022-08-01T10:58:25;23.70;99.90
17851;DHT22;9051;51.548;14.348;2022-08-01T11:01:19;23.50;99.90
17851;DHT22;9051;51.548;14.348;2022-08-01T11:04:05;22.70;99.90
17851;DHT22;9051;51.548;14.348;2022-08-01T11:06:44;22.00;99.90
17851;DHT22;9051;51.548;14.348;2022-08-01T11:09:25;21.10;99.90
17851;DHT22;9051;51.548;14.348;2022-08-01T11:12:00;20.50;99.90
17851;DHT22;9051;51.548;14.348;2022-08-01T11:17:33;19.80;99.90
17851;DHT22;9051;51.548;14.348;2022-08-01T11:20:07;19.70;99.90
17851;DHT22;9051;51.548;14.348;2022-08-01T11:26:11;19.50;99.90
17851;DHT22;9051;51.548;14.348;2022-08-01T11:28:46;19.60;99.90
17851;DHT22;9051;51.548;14.348;2022-08-01T11:31:39;19.60;99.90
17851;DHT22;9051;51.548;14.348;2022-08-01T11:34:12;19.60;99.90
17851;DHT22;9051;51.548;14.348;2022-08-01T11:36:44;19.70;99.90
17851;DHT22;9051;51.548;14.348;2022-08-01T11:39:17;19.70;99.90
17851;DHT22;9051;51.548;14.348;2022-08-01T11:41:49;19.70;99.90
17851;DHT22;9051;51.548;14.348;2022-08-01T11:44:24;19.70;99.90
17851;DHT22;9051;51.548;14.348;2022-08-01T11:47:02;19.70;99.90
17851;DHT22;9051;51.548;14.348;2022-08-01T11:49:46;19.70;99.90
17851;DHT22;9051;51.548;14.348;2022-08-01T11:52:24;19.60;99.90
17851;DHT22;9051;51.548;14.348;2022-08-01T11:55:04;19.60;99.90
17851;DHT22;9051;51.548;14.348;2022-08-01T11:57:37;19.80;99.90
17851;DHT22;9051;51.548;14.348;2022-08-01T12:00:12;19.80;99.90
17851;DHT22;9051;51.548;14.348;2022-08-01T12:02:46;19.90;99.90
17851;DHT22;9051;51.548;14.348;2022-08-01T12:05:28;20.10;99.90
17851;DHT22;9051;51.548;14.348;2022-08-01T12:08:01;20.20;99.90
17851;DHT22;9051;51.548;14.348;2022-08-01T12:10:35;20.30;99.90
17851;DHT22;9051;51.548;14.348;2022-08-01T12:13:08;20.40;99.90
17851;DHT22;9051;51.548;14.348;2022-08-01T12:15:40;20.60;99.90
17851;DHT22;9051;51.548;14.348;2022-08-01T12:18:13;20.80;99.90
17851;DHT22;9051;51.548;14.348;2022-08-01T12:20:46;21.00;99.90
17851;DHT22;9051;51.548;14.348;2022-08-01T12:23:18;21.10;99.90
17851;DHT22;9051;51.548;14.348;2022-08-01T12:25:51;21.20;99.90
17851;DHT22;9051;51.548;14.348;2022-08-01T12:28:23;21.30;99.90
17851;DHT22;9051;51.548;14.348;2022-08-01T12:30:55;21.40;99.90
17851;DHT22;9051;51.548;14.348;2022-08-01T12:33:28;21.60;99.90
17851;DHT22;9051;51.548;14.348;2022-08-01T12:36:00;21.80;99.90
17851;DHT22;9051;51.548;14.348;2022-08-01T12:38:33;21.90;99.90
17851;DHT22;9051;51.548;14.348;2022-08-01T12:41:10;22.10;99.90
17851;DHT22;9051;51.548;14.348;2022-08-01T12:43:42;22.00;99.90
17851;DHT22;9051;51.548;14.348;2022-08-01T12:46:14;22.10;99.90
17851;DHT22;9051;51.548;14.348;2022-08-01T12:48:49;22.50;99.90
17851;DHT22;9051;51.548;14.348;2022-08-01T12:51:21;22.60;99.90
17851;DHT22;9051;51.548;14.348;2022-08-01T12:53:53;22.80;99.90
17851;DHT22;9051;51.548;14.348;2022-08-01T12:56:32;23.00;99.90
17851;DHT22;9051;51.548;14.348;2022-08-01T12:59:19;23.10;99.90
17851;DHT22;9051;51.548;14.348;2022-08-01T13:01:52;23.30;99.90
17851;DHT22;9051;51.548;14.348;2022-08-01T13:04:25;23.40;99.90
17851;DHT22;9051;51.548;14.348;2022-08-01T13:06:57;23.70;99.90
17851;DHT22;9051;51.548;14.348;2022-08-01T13:09:29;23.90;99.90
17851;DHT22;9051;51.548;14.348;2022-08-01T13:12:08;24.10;99.90
17851;DHT22;9051;51.548;14.348;2022-08-01T13:14:40;24.20;99.90
17851;DHT22;9051;51.548;14.348;2022-08-01T13:17:29;24.20;99.90
17851;DHT22;9051;51.548;14.348;2022-08-01T13:20:03;24.30;99.90
17851;DHT22;9051;51.548;14.348;2022-08-01T13:22:36;24.20;99.90
17851;DHT22;9051;51.548;14.348;2022-08-01T13:25:12;24.30;99.90
17851;DHT22;9051;51.548;14.348;2022-08-01T13:27:44;24.50;99.90
17851;DHT22;9051;51.548;14.348;2022-08-01T13:30:18;24.50;99.90
17851;DHT22;9051;51.548;14.348;2022-08-01T13:32:57;24.60;99.90
17851;DHT22;9051;51.548;14.348;2022-08-01T13:35:31;24.50;99.90
17851;DHT22;9051;51.548;14.348;2022-08-01T13:38:02;24.40;99.90
17851;DHT22;9051;51.548;14.348;2022-08-01T13:40:35;24.10;99.90
17851;DHT22;9051;51.548;14.348;2022-08-01T13:43:07;23.90;99.90
17851;DHT22;9051;51.548;14.348;2022-08-01T13:45:40;23.80;99.90
17851;DHT22;9051;51.548;14.348;2022-08-01T13:48:12;23.90;99.90
17851;DHT22;9051;51.548;14.348;2022-08-01T13:50:45;24.00;99.90
17851;DHT22;9051;51.548;14.348;2022-08-01T13:53:17;23.90;99.90
17851;DHT22;9051;51.548;14.348;2022-08-01T13:55:49;23.90;99.90
17851;DHT22;9051;51.548;14.348;2022-08-01T13:58:21;24.00;99.90
17851;DHT22;9051;51.548;14.348;2022-08-01T14:00:53;24.30;99.90
17851;DHT22;9051;51.548;14.348;2022-08-01T14:03:25;24.20;99.90
17851;DHT22;9051;51.548;14.348;2022-08-01T14:05:59;23.80;99.90
17851;DHT22;9051;51.548;14.348;2022-08-01T14:08:31;23.70;99.90
17851;DHT22;9051;51.548;14.348;2022-08-01T14:11:03;23.60;99.90
17851;DHT22;9051;51.548;14.348;2022-08-01T14:13:35;23.70;99.90
17851;DHT22;9051;51.548;14.348;2022-08-01T14:16:07;23.80;99.90
17851;DHT22;9051;51.548;14.348;2022-08-01T14:18:40;23.90;99.90
17851;DHT22;9051;51.548;14.348;2022-08-01T14:21:15;24.00;99.90
17851;DHT22;9051;51.548;14.348;2022-08-01T14:23:48;24.20;99.90
17851;DHT22;9051;51.548;14.348;2022-08-01T14:26:20;24.30;99.90
17851;DHT22;9051;51.548;14.348;2022-08-01T14:28:52;24.20;99.90
17851;DHT22;9051;51.548;14.348;2022-08-01T14:31:24;24.00;99.90
17851;DHT22;9051;51.548;14.348;2022-08-01T14:33:56;23.80;99.90
17851;DHT22;9051;51.548;14.348;2022-08-01T14:36:29;23.70;99.90
17851;DHT22;9051;51.548;14.348;2022-08-01T14:39:01;23.80;99.90
17851;DHT22;9051;51.548;14.348;2022-08-01T14:41:33;24.00;99.90
17851;DHT22;9051;51.548;14.348;2022-08-01T14:44:05;24.30;99.90
17851;DHT22;9051;51.548;14.348;2022-08-01T14:46:39;24.60;99.90
17851;DHT22;9051;51.548;14.348;2022-08-01T14:49:11;24.70;99.90
17851;DHT22;9051;51.548;14.348;2022-08-01T14:51:45;24.60;99.90
17851;DHT22;9051;51.548;14.348;2022-08-01T14:54:17;24.50;99.90
17851;DHT22;9051;51.548;14.348;2022-08-01T14:56:49;24.10;99.90
17851;DHT22;9051;51.548;14.348;2022-08-01T14:59:23;24.00;99.90
17851;DHT22;9051;51.548;14.348;2022-08-01T15:01:55;24.10;99.90
17851;DHT22;9051;51.548;14.348;2022-08-01T15:04:27;24.10;99.90
17851;DHT22;9051;51.548;14.348;2022-08-01T15:07:02;24.20;99.90
17851;DHT22;9051;51.548;14.348;2022-08-01T15:09:34;24.40;99.90
17851;DHT22;9051;51.548;14.348;2022-08-01T15:12:07;24.30;99.90
17851;DHT22;9051;51.548;14.348;2022-08-01T15:14:39;24.50;99.90
17851;DHT22;9051;51.548;14.348;2022-08-01T15:17:22;24.60;99.90
17851;DHT22;9051;51.548;14.348;2022-08-01T15:19:57;24.60;99.90
17851;DHT22;9051;51.548;14.348;2022-08-01T15:22:31;24.60;99.90
17851;DHT22;9051;51.548;14.348;2022-08-01T15:25:04;24.60;99.90
17851;DHT22;9051;51.548;14.348;2022-08-01T15:27:36;24.70;99.90
17851;DHT22;9051;51.548;14.348;2022-08-01T15:30:09;24.90;99.90
17851;DHT22;9051;51.548;14.348;2022-08-01T15:32:41;25.10;99.90
17851;DHT22;9051;51.548;14.348;2022-08-01T15:35:13;25.10;99.90
17851;DHT22;9051;51.548;14.348;2022-08-01T15:37:46;25.00;99.90
17851;DHT22;9051;51.548;14.348;2022-08-01T15:40:18;25.00;99.90
17851;DHT22;9051;51.548;14.348;2022-08-01T15:42:51;25.20;99.90
17851;DHT22;9051;51.548;14.348;2022-08-01T15:45:23;25.20;99.90
17851;DHT22;9051;51.548;14.348;2022-08-01T15:47:56;25.50;99.90
17851;DHT22;9051;51.548;14.348;2022-08-01T15:50:28;25.70;99.90
17851;DHT22;9051;51.548;14.348;2022-08-01T15:53:02;25.30;99.90
17851;DHT22;9051;51.548;14.348;2022-08-01T15:55:35;25.10;99.90
17851;DHT22;9051;51.548;14.348;2022-08-01T15:58:07;25.10;99.90
17851;DHT22;9051;51.548;14.348;2022-08-01T16:00:39;25.10;99.90
17851;DHT22;9051;51.548;14.348;2022-08-01T16:03:11;25.30;99.90
17851;DHT22;9051;51.548;14.348;2022-08-01T16:05:43;25.20;99.90
17851;DHT22;9051;51.548;14.348;2022-08-01T16:08:16;25.00;99.90
17851;DHT22;9051;51.548;14.348;2022-08-01T16:10:48;25.10;99.90
17851;DHT22;9051;51.548;14.348;2022-08-01T16:13:20;24.90;99.90
17851;DHT22;9051;51.548;14.348;2022-08-01T16:15:52;24.90;99.90
17851;DHT22;9051;51.548;14.348;2022-08-01T16:18:24;25.00;99.90